createdAt,value
2018-12-18T00:01:04.704Z,101952.76
2018-12-18T00:03:39.165Z,101956.30
2018-12-18T00:06:01.175Z,101961.18
2018-12-18T00:08:29.425Z,101962.51
2018-12-18T00:11:16.774Z,101963.36
2018-12-18T00:13:45.048Z,101962.03
2018-12-18T00:16:13.306Z,101964.27
2018-12-18T00:18:41.532Z,101957.20
2018-12-18T00:21:09.773Z,101962.54
2018-12-18T00:23:38.001Z,101961.59
2018-12-18T00:26:06.225Z,101950.99
2018-12-18T00:28:34.436Z,101953.67
2018-12-18T00:31:03.209Z,101944.43
2018-12-18T00:33:31.417Z,101945.34
2018-12-18T00:35:59.682Z,101947.11
2018-12-18T00:38:27.892Z,101951.97
2018-12-18T00:40:56.124Z,101952.85
2018-12-18T00:43:24.379Z,101945.81
2018-12-18T00:45:52.628Z,101945.37
2018-12-18T00:48:20.868Z,101937.83
2018-12-18T00:50:49.179Z,101942.25
2018-12-18T00:53:17.441Z,101937.83
2018-12-18T00:55:45.624Z,101944.95
2018-12-18T00:58:13.908Z,101941.39
2018-12-18T01:00:42.143Z,101946.75
2018-12-18T01:03:10.383Z,101947.22
2018-12-18T01:05:38.615Z,101945.04
2018-12-18T01:08:06.861Z,101950.28
2018-12-18T01:10:35.115Z,101944.55
2018-12-18T01:13:03.366Z,101950.28
2018-12-18T01:15:31.616Z,101952.50
2018-12-18T01:17:59.844Z,101951.20
2018-12-18T01:20:28.123Z,101954.73
2018-12-18T01:22:56.330Z,101966.66
2018-12-18T01:25:24.620Z,101963.18
2018-12-18T01:27:52.851Z,101969.34
2018-12-18T01:30:21.067Z,101974.20
2018-12-18T01:32:49.326Z,101969.40
2018-12-18T01:35:17.557Z,101969.34
2018-12-18T01:37:45.841Z,101972.48
2018-12-18T01:40:14.072Z,101973.34
2018-12-18T01:42:42.283Z,101974.20
2018-12-18T01:45:10.517Z,101972.93
2018-12-18T01:47:38.760Z,101970.75
2018-12-18T01:50:07.012Z,101972.95
2018-12-18T01:52:35.212Z,101976.02
2018-12-18T01:55:05.455Z,101980.89
2018-12-18T01:57:33.712Z,101981.33
2018-12-18T02:00:01.936Z,101982.68
2018-12-18T02:02:30.188Z,101984.45
2018-12-18T02:04:58.443Z,101983.95
2018-12-18T02:07:26.682Z,101981.73
2018-12-18T02:09:54.942Z,101989.28
2018-12-18T02:12:23.201Z,101980.91
2018-12-18T02:14:51.450Z,101978.23
2018-12-18T02:17:19.712Z,101981.36
2018-12-18T02:19:47.946Z,101988.45
2018-12-18T02:22:16.171Z,101984.91
2018-12-18T02:24:44.415Z,101978.72
2018-12-18T02:27:12.641Z,101987.59
2018-12-18T02:29:40.879Z,101984.05
2018-12-18T02:32:09.118Z,101984.11
2018-12-18T02:34:37.344Z,101984.11
2018-12-18T02:37:05.596Z,101980.13
2018-12-18T02:39:33.833Z,101973.48
2018-12-18T02:42:02.071Z,101967.26
2018-12-18T02:44:30.292Z,101963.74
2018-12-18T02:46:58.527Z,101962.03
2018-12-18T02:49:26.754Z,101966.86
2018-12-18T02:51:54.986Z,101969.09
2018-12-18T02:54:23.203Z,101975.73
2018-12-18T02:56:51.454Z,101975.70
2018-12-18T02:59:19.742Z,101972.61
2018-12-18T03:01:47.901Z,101972.17
2018-12-18T03:04:21.328Z,101970.43
2018-12-18T03:06:44.335Z,101972.61
2018-12-18T03:09:12.599Z,101979.71
2018-12-18T03:11:40.814Z,101980.62
2018-12-18T03:14:09.062Z,101988.11
2018-12-18T03:16:37.308Z,101993.88
2018-12-18T03:19:05.546Z,101987.66
2018-12-18T03:21:33.765Z,101991.25
2018-12-18T03:24:02.014Z,101992.58
2018-12-18T03:26:30.237Z,101989.92
2018-12-18T03:28:58.491Z,101988.59
2018-12-18T03:31:26.701Z,101982.87
2018-12-18T03:33:54.944Z,101993.48
2018-12-18T03:36:23.169Z,101978.03
2018-12-18T03:38:51.422Z,101979.77
2018-12-18T03:41:19.649Z,101978.42
2018-12-18T03:43:47.874Z,101984.64
2018-12-18T03:46:16.117Z,101992.59
2018-12-18T03:48:44.341Z,101985.52
2018-12-18T03:51:12.572Z,101989.05
2018-12-18T03:53:40.819Z,101987.29
2018-12-18T03:56:09.084Z,101985.99
2018-12-18T03:58:37.320Z,101989.50
2018-12-18T04:01:05.541Z,101985.97
2018-12-18T04:03:33.786Z,101988.17
2018-12-18T04:06:02.009Z,101988.62
2018-12-18T04:08:30.266Z,101991.30
2018-12-18T04:10:58.501Z,101996.59
2018-12-18T04:13:26.757Z,101988.20
2018-12-18T04:15:55.134Z,101987.73
2018-12-18T04:18:23.330Z,101989.50
2018-12-18T04:20:51.580Z,101988.66
2018-12-18T04:23:19.845Z,101983.80
2018-12-18T04:25:48.046Z,101980.64
2018-12-18T04:28:16.290Z,101973.13
2018-12-18T04:30:44.495Z,101975.81
2018-12-18T04:33:12.746Z,101975.81
2018-12-18T04:35:40.962Z,101982.49
2018-12-18T04:38:09.230Z,101982.91
2018-12-18T04:40:37.449Z,101984.66
2018-12-18T04:43:05.676Z,101985.13
2018-12-18T04:45:33.911Z,101994.84
2018-12-18T04:48:02.126Z,101991.76
2018-12-18T04:51:16.474Z,101993.54
2018-12-18T04:53:43.970Z,101997.53
2018-12-18T04:56:11.491Z,101995.31
2018-12-18T04:58:39.062Z,101992.66
2018-12-18T05:01:06.618Z,101994.88
2018-12-18T05:03:34.173Z,101993.19
2018-12-18T05:06:01.734Z,101988.69
2018-12-18T05:08:29.295Z,101989.57
2018-12-18T05:10:56.858Z,101984.26
2018-12-18T05:13:24.413Z,101987.35
2018-12-18T05:15:51.908Z,101983.89
2018-12-18T05:18:19.413Z,101982.49
2018-12-18T05:20:46.918Z,101982.93
2018-12-18T05:23:14.440Z,101988.25
2018-12-18T05:25:42.139Z,101991.31
2018-12-18T05:28:09.647Z,101991.78
2018-12-18T05:30:37.254Z,101987.80
2018-12-18T05:33:04.838Z,101991.77
2018-12-18T05:35:32.345Z,101989.98
2018-12-18T05:37:59.909Z,101990.87
2018-12-18T05:40:27.476Z,101989.13
2018-12-18T05:42:55.003Z,101991.31
2018-12-18T05:45:22.565Z,101999.30
2018-12-18T05:47:50.158Z,102006.34
2018-12-18T05:50:17.714Z,102005.03
2018-12-18T05:52:45.277Z,102011.23
2018-12-18T05:55:12.832Z,102009.49
2018-12-18T05:57:40.398Z,102015.23
2018-12-18T06:00:07.949Z,102022.31
2018-12-18T06:02:35.517Z,102022.75
2018-12-18T06:05:03.474Z,102026.30
2018-12-18T06:07:31.224Z,102024.94
2018-12-18T06:09:58.736Z,102028.52
2018-12-18T06:12:26.291Z,102022.31
2018-12-18T06:14:53.823Z,102030.77
2018-12-18T06:17:21.390Z,102031.62
2018-12-18T06:19:48.944Z,102041.84
2018-12-18T06:22:16.521Z,102038.25
2018-12-18T06:24:44.037Z,102048.90
2018-12-18T06:27:11.542Z,102043.13
2018-12-18T06:29:39.185Z,102043.16
2018-12-18T06:32:06.690Z,102043.59
2018-12-18T06:34:34.305Z,102042.27
2018-12-18T06:37:01.806Z,102046.24
2018-12-18T06:39:29.424Z,102047.60
2018-12-18T06:41:56.987Z,102050.69
2018-12-18T06:44:24.544Z,102050.27
2018-12-18T06:46:52.100Z,102052.91
2018-12-18T06:49:19.602Z,102051.14
2018-12-18T06:51:47.226Z,102053.81
2018-12-18T06:54:14.896Z,102048.02
2018-12-18T06:56:42.403Z,102051.11
2018-12-18T06:59:09.922Z,102052.45
2018-12-18T07:01:37.567Z,102061.31
2018-12-18T07:04:05.073Z,102048.04
2018-12-18T07:06:32.687Z,102056.00
2018-12-18T07:09:00.183Z,102063.08
2018-12-18T07:11:27.732Z,102063.52
2018-12-18T07:13:55.261Z,102056.87
2018-12-18T07:16:23.358Z,102050.66
2018-12-18T07:18:50.864Z,102051.58
2018-12-18T07:21:18.396Z,102060.00
2018-12-18T07:23:45.911Z,102069.73
2018-12-18T07:26:13.451Z,102065.75
2018-12-18T07:28:41.053Z,102069.73
2018-12-18T07:31:08.550Z,102074.63
2018-12-18T07:33:36.114Z,102074.63
2018-12-18T07:36:03.690Z,102073.77
2018-12-18T07:38:31.210Z,102082.61
2018-12-18T07:40:58.744Z,102079.54
2018-12-18T07:43:26.396Z,102076.88
2018-12-18T07:45:53.964Z,102084.37
2018-12-18T07:48:21.516Z,102086.17
2018-12-18T07:50:49.015Z,102095.05
2018-12-18T07:53:16.634Z,102090.17
2018-12-18T07:55:44.129Z,102092.85
2018-12-18T07:58:11.653Z,102102.14
2018-12-18T08:00:39.216Z,102102.57
2018-12-18T08:03:06.713Z,102103.89
2018-12-18T08:05:34.234Z,102103.89
2018-12-18T08:08:01.799Z,102102.58
2018-12-18T08:10:29.354Z,102102.58
2018-12-18T08:12:56.856Z,102106.12
2018-12-18T08:15:24.474Z,102103.89
2018-12-18T08:17:52.005Z,102098.17
2018-12-18T08:20:19.518Z,102099.06
2018-12-18T08:22:47.051Z,102102.59
2018-12-18T08:25:14.594Z,102103.94
2018-12-18T08:27:42.130Z,102104.37
2018-12-18T08:30:09.837Z,102104.84
2018-12-18T08:32:37.496Z,102105.28
2018-12-18T08:35:05.680Z,102115.02
2018-12-18T08:37:33.245Z,102114.13
2018-12-18T08:40:00.760Z,102112.80
2018-12-18T08:42:28.262Z,102111.94
2018-12-18T08:44:55.921Z,102115.50
2018-12-18T08:47:23.572Z,102105.77
2018-12-18T08:49:51.175Z,102106.62
2018-12-18T08:52:18.677Z,102111.95
2018-12-18T08:54:46.258Z,102118.19
2018-12-18T08:57:13.761Z,102115.97
2018-12-18T08:59:41.380Z,102110.67
2018-12-18T09:02:08.916Z,102116.42
2018-12-18T09:04:36.435Z,102117.33
2018-12-18T09:07:03.981Z,102114.24
2018-12-18T09:09:31.517Z,102113.81
2018-12-18T09:11:59.080Z,102111.18
2018-12-18T09:14:26.636Z,102117.38
2018-12-18T09:17:08.575Z,102120.48
2018-12-18T09:19:36.088Z,102120.50
2018-12-18T09:22:04.048Z,102118.27
2018-12-18T09:24:31.582Z,102122.72
2018-12-18T09:26:59.150Z,102121.84
2018-12-18T09:29:26.674Z,102123.62
2018-12-18T09:31:54.399Z,102113.45
2018-12-18T09:34:21.971Z,102105.06
2018-12-18T09:36:49.485Z,102101.97
2018-12-18T09:39:18.790Z,102099.75
2018-12-18T09:41:46.760Z,102097.53
2018-12-18T09:44:16.825Z,102096.66
2018-12-18T09:46:44.402Z,102098.91
2018-12-18T09:49:11.969Z,102095.36
2018-12-18T09:51:39.610Z,102103.34
2018-12-18T09:54:07.120Z,102101.11
2018-12-18T09:56:36.587Z,102103.77
2018-12-18T09:59:04.314Z,102105.13
2018-12-18T10:01:31.886Z,102111.77
2018-12-18T10:03:59.405Z,102106.00
2018-12-18T10:06:26.921Z,102113.53
2018-12-18T10:08:54.428Z,102109.12
2018-12-18T10:11:21.932Z,102110.44
2018-12-18T10:13:50.627Z,102105.11
2018-12-18T10:16:18.135Z,102107.34
2018-12-18T10:18:45.737Z,102105.58
2018-12-18T10:21:13.391Z,102102.01
2018-12-18T10:23:41.384Z,102111.77
2018-12-18T10:26:08.953Z,102099.80
2018-12-18T10:28:36.526Z,102099.34
2018-12-18T10:31:04.153Z,102094.47
2018-12-18T10:33:31.700Z,102097.16
2018-12-18T10:36:02.941Z,102098.03
2018-12-18T10:38:28.766Z,102096.70
2018-12-18T10:40:56.295Z,102088.72
2018-12-18T10:43:23.984Z,102092.70
2018-12-18T10:45:51.477Z,102085.19
2018-12-18T10:48:18.999Z,102082.06
2018-12-18T10:50:46.594Z,102082.52
2018-12-18T10:53:14.233Z,102086.95
2018-12-18T10:55:41.789Z,102084.28
2018-12-18T10:58:09.317Z,102080.74
2018-12-18T11:00:42.341Z,102084.27
2018-12-18T11:03:09.907Z,102081.19
2018-12-18T11:05:37.417Z,102075.85
2018-12-18T11:08:05.045Z,102071.86
2018-12-18T11:10:32.667Z,102074.52
2018-12-18T11:13:05.755Z,102075.41
2018-12-18T11:15:33.420Z,102069.20
2018-12-18T11:18:00.981Z,102072.27
2018-12-18T11:20:28.497Z,102064.75
2018-12-18T11:22:56.059Z,102057.63
2018-12-18T11:25:23.608Z,102054.97
2018-12-18T11:27:51.222Z,102055.82
2018-12-18T11:30:18.781Z,102055.37
2018-12-18T11:32:46.342Z,102056.70
2018-12-18T11:35:13.910Z,102051.79
2018-12-18T11:37:41.413Z,102035.80
2018-12-18T11:40:09.426Z,102031.77
2018-12-18T11:42:36.938Z,102027.28
2018-12-18T11:45:04.832Z,102028.64
2018-12-18T11:47:32.346Z,102023.32
2018-12-18T11:49:59.853Z,102021.52
2018-12-18T11:52:27.350Z,102011.22
2018-12-18T11:54:54.911Z,102011.27
2018-12-18T11:57:22.471Z,102007.77
2018-12-18T11:59:50.017Z,102009.47
2018-12-18T12:02:17.542Z,102005.06
2018-12-18T12:04:45.069Z,102000.64
2018-12-18T12:07:12.585Z,102003.78
2018-12-18T12:09:40.182Z,102006.49
2018-12-18T12:12:07.713Z,102008.68
2018-12-18T12:14:35.240Z,102007.38
2018-12-18T12:17:02.771Z,102005.11
2018-12-18T12:19:30.290Z,102009.59
2018-12-18T12:21:58.252Z,102006.50
2018-12-18T12:24:25.793Z,102006.08
2018-12-18T12:26:55.275Z,102006.95
2018-12-18T12:29:22.886Z,102010.97
2018-12-18T12:31:50.386Z,102013.23
2018-12-18T12:34:18.003Z,102009.67
2018-12-18T12:36:45.514Z,101999.51
2018-12-18T12:39:13.152Z,101998.16
2018-12-18T12:41:40.687Z,101997.23
2018-12-18T12:44:08.210Z,101993.66
2018-12-18T12:46:35.749Z,102003.41
2018-12-18T12:49:05.209Z,102002.51
2018-12-18T12:51:32.727Z,102007.83
2018-12-18T12:54:00.325Z,102006.09
2018-12-18T12:56:27.846Z,102011.35
2018-12-18T12:58:55.446Z,102006.02
2018-12-18T13:01:23.013Z,102002.42
2018-12-18T13:03:50.584Z,101988.63
2018-12-18T13:06:18.097Z,101983.72
2018-12-18T13:08:45.627Z,101991.72
2018-12-18T13:11:13.129Z,101982.37
2018-12-18T13:13:40.650Z,101985.95
2018-12-18T13:16:08.207Z,101985.97
2018-12-18T13:18:35.767Z,101990.80
2018-12-18T13:21:03.420Z,101989.06
2018-12-18T13:23:31.066Z,101989.91
2018-12-18T13:25:58.626Z,101985.89
2018-12-18T13:28:26.175Z,101987.23
2018-12-18T13:30:53.691Z,101987.74
2018-12-18T13:33:21.249Z,101994.38
2018-12-18T13:35:49.057Z,101994.36
2018-12-18T13:38:16.855Z,101996.20
2018-12-18T13:40:44.455Z,101994.89
2018-12-18T13:43:12.009Z,101989.52
2018-12-18T13:45:39.524Z,101982.89
2018-12-18T13:48:07.059Z,101997.08
2018-12-18T13:50:34.614Z,101996.20
2018-12-18T13:53:02.180Z,101990.93
2018-12-18T13:55:29.710Z,101986.50
2018-12-18T13:57:57.335Z,101980.28
2018-12-18T14:00:24.867Z,101986.09
2018-12-18T14:02:52.376Z,101985.65
2018-12-18T14:05:20.001Z,101989.69
2018-12-18T14:07:47.547Z,101989.26
2018-12-18T14:10:15.110Z,101986.57
2018-12-18T14:12:44.557Z,101988.78
2018-12-18T14:15:12.115Z,101988.34
2018-12-18T14:17:39.727Z,101994.19
2018-12-18T14:20:07.922Z,101986.20
2018-12-18T14:22:35.420Z,101995.47
2018-12-18T14:25:02.963Z,101990.14
2018-12-18T14:27:30.470Z,101988.38
2018-12-18T14:29:57.972Z,101991.48
2018-12-18T14:32:25.609Z,101987.53
2018-12-18T14:34:53.135Z,101990.19
2018-12-18T14:37:20.644Z,101992.41
2018-12-18T14:39:48.200Z,101989.77
2018-12-18T14:42:15.729Z,101991.99
2018-12-18T14:44:43.223Z,101987.14
2018-12-18T14:47:10.854Z,101987.55
2018-12-18T14:49:38.517Z,101982.25
2018-12-18T14:52:06.198Z,101975.63
2018-12-18T14:54:33.958Z,101973.38
2018-12-18T14:57:01.602Z,101969.84
2018-12-18T14:59:29.642Z,101969.88
2018-12-18T15:01:57.246Z,101968.97
2018-12-18T15:04:24.942Z,101971.19
2018-12-18T15:06:52.441Z,101964.55
2018-12-18T15:09:19.998Z,101970.73
2018-12-18T15:11:47.680Z,101963.20
2018-12-18T15:14:15.238Z,101960.98
2018-12-18T15:16:42.821Z,101967.19
2018-12-18T15:19:10.366Z,101961.02
2018-12-18T15:21:37.889Z,101963.66
2018-12-18T15:24:05.485Z,101964.11
2018-12-18T15:26:33.348Z,101957.45
2018-12-18T15:29:00.849Z,101964.11
2018-12-18T15:31:28.359Z,101965.44
2018-12-18T15:33:55.927Z,101970.77
2018-12-18T15:36:23.426Z,101968.56
2018-12-18T15:38:50.941Z,101957.92
2018-12-18T15:41:18.500Z,101965.91
2018-12-18T15:43:46.081Z,101967.23
2018-12-18T15:46:13.746Z,101966.36
2018-12-18T15:48:41.253Z,101976.98
2018-12-18T15:51:08.852Z,101976.98
2018-12-18T15:53:36.430Z,101976.55
2018-12-18T15:56:04.082Z,101978.33
2018-12-18T15:58:31.599Z,101982.75
2018-12-18T16:00:59.102Z,101989.42
2018-12-18T16:03:26.629Z,101991.63
2018-12-18T16:05:54.211Z,101983.20
2018-12-18T16:08:21.708Z,101980.55
2018-12-18T16:10:49.355Z,101979.22
2018-12-18T16:13:16.890Z,101976.13
2018-12-18T16:15:44.446Z,101981.42
2018-12-18T16:18:11.942Z,101981.88
2018-12-18T16:20:39.467Z,101984.98
2018-12-18T16:23:07.160Z,101988.53
2018-12-18T16:25:34.898Z,101986.76
2018-12-18T16:28:02.410Z,101983.64
2018-12-18T16:30:30.009Z,101975.67
2018-12-18T16:32:57.588Z,101980.11
2018-12-18T16:35:25.166Z,101969.93
2018-12-18T16:37:52.752Z,101969.47
2018-12-18T16:40:20.325Z,101972.58
2018-12-18T16:42:47.837Z,101975.23
2018-12-18T16:45:15.474Z,101975.20
2018-12-18T16:47:42.969Z,101978.34
2018-12-18T16:50:10.488Z,101982.74
2018-12-18T16:52:38.037Z,101989.83
2018-12-18T16:55:06.032Z,101996.03
2018-12-18T16:57:33.553Z,101988.06
2018-12-18T17:00:01.098Z,101991.15
2018-12-18T17:02:28.801Z,101987.17
2018-12-18T17:04:56.318Z,101996.04
2018-12-18T17:07:29.395Z,101990.70
2018-12-18T17:09:53.428Z,101985.81
2018-12-18T17:12:20.940Z,101988.49
2018-12-18T17:14:48.470Z,101983.14
2018-12-18T17:17:16.005Z,101976.95
2018-12-18T17:19:43.526Z,101975.19
2018-12-18T17:22:11.031Z,101972.95
2018-12-18T17:24:38.534Z,101970.76
2018-12-18T17:27:06.155Z,101967.18
2018-12-18T17:29:33.726Z,101966.77
2018-12-18T17:32:01.222Z,101975.58
2018-12-18T17:34:28.842Z,101966.75
2018-12-18T17:36:56.384Z,101974.72
2018-12-18T17:39:23.945Z,101975.14
2018-12-18T17:41:51.484Z,101975.09
2018-12-18T17:44:18.998Z,101968.46
2018-12-18T17:46:46.499Z,101966.70
2018-12-18T17:49:14.053Z,101970.25
2018-12-18T17:51:41.651Z,101967.58
2018-12-18T17:54:09.203Z,101967.13
2018-12-18T17:56:36.736Z,101959.13
2018-12-18T17:59:04.386Z,101955.61
2018-12-18T18:01:31.887Z,101954.27
2018-12-18T18:03:59.410Z,101956.45
2018-12-18T18:06:26.927Z,101968.84
2018-12-18T18:08:54.473Z,101966.17
2018-12-18T18:11:22.041Z,101965.30
2018-12-18T18:13:49.557Z,101963.95
2018-12-18T18:16:17.117Z,101959.96
2018-12-18T18:18:44.621Z,101967.05
2018-12-18T18:21:12.174Z,101967.91
2018-12-18T18:23:39.686Z,101961.72
2018-12-18T18:26:07.856Z,101958.13
2018-12-18T18:28:35.449Z,101959.45
2018-12-18T18:31:03.008Z,101957.26
2018-12-18T18:33:30.507Z,101959.01
2018-12-18T18:35:58.014Z,101962.98
2018-12-18T18:38:25.598Z,101964.71
2018-12-18T18:40:53.155Z,101966.02
2018-12-18T18:43:20.714Z,101959.84
2018-12-18T18:45:48.269Z,101951.43
2018-12-18T18:48:15.778Z,101957.62
2018-12-18T18:50:43.386Z,101947.88
2018-12-18T18:53:10.876Z,101952.30
2018-12-18T18:55:38.378Z,101955.78
2018-12-18T18:58:05.971Z,101949.16
2018-12-18T19:00:33.671Z,101951.38
2018-12-18T19:03:01.217Z,101949.60
2018-12-18T19:05:28.723Z,101941.17
2018-12-18T19:07:56.801Z,101944.28
2018-12-18T19:10:24.431Z,101940.73
2018-12-18T19:12:53.920Z,101943.37
2018-12-18T19:15:21.441Z,101938.95
2018-12-18T19:17:49.106Z,101933.62
2018-12-18T19:20:16.674Z,101939.39
2018-12-18T19:22:44.236Z,101934.50
2018-12-18T19:25:11.740Z,101930.97
2018-12-18T19:27:39.350Z,101930.50
2018-12-18T19:30:07.262Z,101930.95
2018-12-18T19:32:34.847Z,101926.97
2018-12-18T19:35:02.422Z,101925.20
2018-12-18T19:37:29.995Z,101926.53
2018-12-18T19:39:57.494Z,101929.59
2018-12-18T19:42:25.206Z,101935.31
2018-12-18T19:44:52.963Z,101927.78
2018-12-18T19:47:20.498Z,101922.51
2018-12-18T19:49:48.001Z,101920.30
2018-12-18T19:52:15.563Z,101918.92
2018-12-18T19:54:43.115Z,101921.13
2018-12-18T19:57:10.690Z,101914.47
2018-12-18T19:59:38.201Z,101910.47
2018-12-18T20:02:06.323Z,101902.08
2018-12-18T20:04:33.879Z,101902.08
2018-12-18T20:07:01.614Z,101899.84
2018-12-18T20:09:29.113Z,101895.88
2018-12-18T20:11:57.178Z,101895.42
2018-12-18T20:14:24.792Z,101899.81
2018-12-18T20:16:52.391Z,101891.43
2018-12-18T20:19:19.950Z,101906.00
2018-12-18T20:21:47.449Z,101903.32
2018-12-18T20:24:15.178Z,101903.34
2018-12-18T20:26:42.683Z,101901.14
2018-12-18T20:29:10.314Z,101905.97
2018-12-18T20:31:37.820Z,101896.20
2018-12-18T20:34:05.355Z,101880.30
2018-12-18T20:36:32.941Z,101873.69
2018-12-18T20:39:00.491Z,101879.39
2018-12-18T20:41:28.091Z,101880.69
2018-12-18T20:43:55.768Z,101874.95
2018-12-18T20:46:23.264Z,101880.69
2018-12-18T20:48:50.876Z,101871.83
2018-12-18T20:51:18.389Z,101860.79
2018-12-18T20:53:45.996Z,101859.47
2018-12-18T20:56:13.656Z,101862.12
2018-12-18T20:58:41.193Z,101866.94
2018-12-18T21:01:08.981Z,101864.70
2018-12-18T21:03:36.541Z,101864.70
2018-12-18T21:06:04.150Z,101871.77
2018-12-18T21:08:31.683Z,101871.27
2018-12-18T21:10:59.184Z,101866.85
2018-12-18T21:13:28.790Z,101858.88
2018-12-18T21:15:56.596Z,101857.96
2018-12-18T21:18:24.461Z,101851.72
2018-12-18T21:20:52.022Z,101847.75
2018-12-18T21:23:19.586Z,101842.86
2018-12-18T21:25:47.086Z,101825.59
2018-12-18T21:28:14.705Z,101822.02
2018-12-18T21:30:42.541Z,101822.43
2018-12-18T21:33:10.137Z,101823.28
2018-12-18T21:35:37.826Z,101819.27
2018-12-18T21:38:05.454Z,101813.94
2018-12-18T21:40:33.135Z,101811.33
2018-12-18T21:43:00.878Z,101812.63
2018-12-18T21:45:28.378Z,101809.94
2018-12-18T21:47:56.094Z,101816.52
2018-12-18T21:50:23.768Z,101815.20
2018-12-18T21:52:51.322Z,101813.02
2018-12-18T21:55:18.991Z,101819.56
2018-12-18T21:57:46.509Z,101813.75
2018-12-18T22:00:14.214Z,101817.64
2018-12-18T22:02:41.988Z,101818.05
2018-12-18T22:05:09.944Z,101817.52
2018-12-18T22:07:37.467Z,101819.28
2018-12-18T22:10:06.060Z,101806.86
2018-12-18T22:12:33.756Z,101817.52
2018-12-18T22:15:01.312Z,101817.48
2018-12-18T22:17:28.979Z,101812.98
2018-12-18T22:19:56.747Z,101807.70
2018-12-18T22:22:24.638Z,101810.30
2018-12-18T22:24:52.474Z,101798.84
2018-12-18T22:27:20.141Z,101800.11
2018-12-18T22:29:47.695Z,101796.98
2018-12-18T22:32:15.210Z,101795.27
2018-12-18T22:34:42.754Z,101782.45
2018-12-18T22:37:10.347Z,101787.73
2018-12-18T22:39:37.892Z,101781.04
2018-12-18T22:42:05.433Z,101766.46
2018-12-18T22:44:32.952Z,101769.94
2018-12-18T22:47:00.688Z,101764.61
2018-12-18T22:49:28.379Z,101759.80
2018-12-18T22:51:55.946Z,101765.92
2018-12-18T22:54:23.453Z,101755.70
2018-12-18T22:56:50.988Z,101748.70
2018-12-18T22:59:18.622Z,101743.85
2018-12-18T23:01:46.179Z,101743.37
2018-12-18T23:04:14.277Z,101737.55
2018-12-18T23:06:41.916Z,101734.47
2018-12-18T23:09:11.368Z,101738.38
2018-12-18T23:11:38.918Z,101733.98
2018-12-18T23:14:06.458Z,101730.41
2018-12-18T23:16:34.009Z,101719.80
2018-12-18T23:19:01.572Z,101718.47
2018-12-18T23:21:29.120Z,101719.75
2018-12-18T23:23:56.679Z,101710.94
2018-12-18T23:26:24.242Z,101711.34
2018-12-18T23:28:51.752Z,101705.17
2018-12-18T23:31:19.362Z,101705.13
2018-12-18T23:33:46.877Z,101699.85
2018-12-18T23:36:14.417Z,101703.81
2018-12-18T23:38:41.956Z,101695.88
2018-12-18T23:41:09.461Z,101686.61
2018-12-18T23:43:37.065Z,101689.29
2018-12-18T23:46:04.613Z,101686.69
2018-12-18T23:48:32.325Z,101676.96
2018-12-18T23:50:59.838Z,101676.03
2018-12-18T23:53:27.526Z,101680.00
2018-12-18T23:55:55.086Z,101673.39
2018-12-18T23:58:22.619Z,101672.95
